sensor_id;sensor_type;location;lat;lon;timestamp;P1;durP1;ratioP1;P2;durP2;ratioP2
7969;SDS011;4030;52.362;9.206;2023-05-10T00:01:47;5.07;;;2.60;;
7969;SDS011;4030;52.362;9.206;2023-05-10T00:04:13;2.97;;;2.25;;
7969;SDS011;4030;52.362;9.206;2023-05-10T00:06:38;2.80;;;2.13;;
7969;SDS011;4030;52.362;9.206;2023-05-10T00:09:04;3.53;;;2.38;;
7969;SDS011;4030;52.362;9.206;2023-05-10T00:11:30;3.47;;;2.30;;
7969;SDS011;4030;52.362;9.206;2023-05-10T00:13:56;2.90;;;2.30;;
7969;SDS011;4030;52.362;9.206;2023-05-10T00:16:21;4.93;;;2.60;;
7969;SDS011;4030;52.362;9.206;2023-05-10T00:18:47;3.30;;;2.40;;
7969;SDS011;4030;52.362;9.206;2023-05-10T00:21:12;3.80;;;2.10;;
7969;SDS011;4030;52.362;9.206;2023-05-10T00:23:38;2.90;;;2.30;;
7969;SDS011;4030;52.362;9.206;2023-05-10T00:26:04;3.50;;;2.38;;
7969;SDS011;4030;52.362;9.206;2023-05-10T00:28:29;4.20;;;2.42;;
7969;SDS011;4030;52.362;9.206;2023-05-10T00:30:55;3.72;;;2.47;;
7969;SDS011;4030;52.362;9.206;2023-05-10T00:33:21;3.22;;;2.13;;
7969;SDS011;4030;52.362;9.206;2023-05-10T00:35:46;3.05;;;2.40;;
7969;SDS011;4030;52.362;9.206;2023-05-10T00:38:12;2.83;;;2.47;;
7969;SDS011;4030;52.362;9.206;2023-05-10T00:40:38;3.67;;;2.20;;
7969;SDS011;4030;52.362;9.206;2023-05-10T00:43:03;3.22;;;2.47;;
7969;SDS011;4030;52.362;9.206;2023-05-10T00:45:30;3.10;;;2.20;;
7969;SDS011;4030;52.362;9.206;2023-05-10T00:47:57;3.63;;;2.47;;
7969;SDS011;4030;52.362;9.206;2023-05-10T00:50:26;3.65;;;2.30;;
7969;SDS011;4030;52.362;9.206;2023-05-10T00:52:51;3.70;;;2.60;;
7969;SDS011;4030;52.362;9.206;2023-05-10T00:55:17;3.15;;;2.33;;
7969;SDS011;4030;52.362;9.206;2023-05-10T00:57:43;2.55;;;2.30;;
7969;SDS011;4030;52.362;9.206;2023-05-10T01:00:09;2.85;;;2.50;;
7969;SDS011;4030;52.362;9.206;2023-05-10T01:02:36;3.42;;;2.42;;
7969;SDS011;4030;52.362;9.206;2023-05-10T01:05:02;4.63;;;2.45;;
7969;SDS011;4030;52.362;9.206;2023-05-10T01:07:29;3.85;;;2.55;;
7969;SDS011;4030;52.362;9.206;2023-05-10T01:09:54;3.55;;;2.30;;
7969;SDS011;4030;52.362;9.206;2023-05-10T01:12:21;3.70;;;2.45;;
7969;SDS011;4030;52.362;9.206;2023-05-10T01:14:47;3.63;;;2.50;;
7969;SDS011;4030;52.362;9.206;2023-05-10T01:17:13;2.60;;;2.40;;
7969;SDS011;4030;52.362;9.206;2023-05-10T01:19:39;3.15;;;2.53;;
7969;SDS011;4030;52.362;9.206;2023-05-10T01:34:59;2.65;;;2.20;;
7969;SDS011;4030;52.362;9.206;2023-05-10T01:37:31;3.35;;;2.58;;
7969;SDS011;4030;52.362;9.206;2023-05-10T01:40:14;4.50;;;2.60;;
7969;SDS011;4030;52.362;9.206;2023-05-10T01:42:51;3.50;;;2.58;;
7969;SDS011;4030;52.362;9.206;2023-05-10T01:45:30;3.95;;;2.33;;
7969;SDS011;4030;52.362;9.206;2023-05-10T01:48:06;3.53;;;2.38;;
7969;SDS011;4030;52.362;9.206;2023-05-10T01:50:36;3.30;;;2.50;;
7969;SDS011;4030;52.362;9.206;2023-05-10T01:53:08;3.00;;;2.50;;
7969;SDS011;4030;52.362;9.206;2023-05-10T01:55:42;2.88;;;2.50;;
7969;SDS011;4030;52.362;9.206;2023-05-10T01:58:19;3.53;;;2.30;;
7969;SDS011;4030;52.362;9.206;2023-05-10T02:00:49;4.75;;;2.30;;
7969;SDS011;4030;52.362;9.206;2023-05-10T02:03:16;5.13;;;2.42;;
7969;SDS011;4030;52.362;9.206;2023-05-10T02:05:46;5.00;;;2.50;;
7969;SDS011;4030;52.362;9.206;2023-05-10T02:08:13;3.78;;;2.40;;
7969;SDS011;4030;52.362;9.206;2023-05-10T02:10:41;3.25;;;2.45;;
7969;SDS011;4030;52.362;9.206;2023-05-10T02:13:08;3.28;;;2.47;;
7969;SDS011;4030;52.362;9.206;2023-05-10T02:15:36;4.43;;;2.72;;
7969;SDS011;4030;52.362;9.206;2023-05-10T02:18:03;3.28;;;2.35;;
7969;SDS011;4030;52.362;9.206;2023-05-10T02:20:30;3.20;;;2.50;;
7969;SDS011;4030;52.362;9.206;2023-05-10T02:22:57;3.42;;;2.50;;
7969;SDS011;4030;52.362;9.206;2023-05-10T02:25:24;3.60;;;2.60;;
7969;SDS011;4030;52.362;9.206;2023-05-10T02:27:53;3.75;;;2.40;;
7969;SDS011;4030;52.362;9.206;2023-05-10T02:30:21;3.45;;;2.55;;
7969;SDS011;4030;52.362;9.206;2023-05-10T02:32:48;4.55;;;2.70;;
7969;SDS011;4030;52.362;9.206;2023-05-10T02:35:14;3.17;;;2.60;;
7969;SDS011;4030;52.362;9.206;2023-05-10T02:37:41;3.75;;;2.60;;
7969;SDS011;4030;52.362;9.206;2023-05-10T02:40:09;4.18;;;2.50;;
7969;SDS011;4030;52.362;9.206;2023-05-10T02:42:37;3.55;;;2.50;;
7969;SDS011;4030;52.362;9.206;2023-05-10T02:45:07;4.32;;;2.65;;
7969;SDS011;4030;52.362;9.206;2023-05-10T02:47:37;4.20;;;2.65;;
7969;SDS011;4030;52.362;9.206;2023-05-10T02:50:03;4.38;;;2.42;;
7969;SDS011;4030;52.362;9.206;2023-05-10T02:52:30;4.78;;;2.67;;
7969;SDS011;4030;52.362;9.206;2023-05-10T02:55:08;5.97;;;2.60;;
7969;SDS011;4030;52.362;9.206;2023-05-10T02:57:38;2.95;;;2.65;;
7969;SDS011;4030;52.362;9.206;2023-05-10T03:00:11;3.05;;;2.50;;
7969;SDS011;4030;52.362;9.206;2023-05-10T03:02:37;3.25;;;2.65;;
7969;SDS011;4030;52.362;9.206;2023-05-10T03:05:03;4.13;;;2.78;;
7969;SDS011;4030;52.362;9.206;2023-05-10T03:07:29;3.85;;;2.50;;
7969;SDS011;4030;52.362;9.206;2023-05-10T03:09:54;2.65;;;2.22;;
7969;SDS011;4030;52.362;9.206;2023-05-10T03:12:27;3.55;;;2.63;;
7969;SDS011;4030;52.362;9.206;2023-05-10T03:15:25;4.22;;;2.78;;
7969;SDS011;4030;52.362;9.206;2023-05-10T03:18:28;3.08;;;2.50;;
7969;SDS011;4030;52.362;9.206;2023-05-10T03:21:02;3.75;;;2.65;;
7969;SDS011;4030;52.362;9.206;2023-05-10T03:23:50;4.15;;;2.80;;
7969;SDS011;4030;52.362;9.206;2023-05-10T03:26:24;4.07;;;2.80;;
7969;SDS011;4030;52.362;9.206;2023-05-10T03:28:52;3.95;;;2.40;;
7969;SDS011;4030;52.362;9.206;2023-05-10T03:31:18;3.65;;;2.50;;
7969;SDS011;4030;52.362;9.206;2023-05-10T03:33:51;3.90;;;2.33;;
7969;SDS011;4030;52.362;9.206;2023-05-10T03:36:17;3.47;;;2.67;;
7969;SDS011;4030;52.362;9.206;2023-05-10T03:38:44;6.00;;;2.53;;
7969;SDS011;4030;52.362;9.206;2023-05-10T03:41:10;4.70;;;3.10;;
7969;SDS011;4030;52.362;9.206;2023-05-10T03:43:36;4.13;;;2.83;;
7969;SDS011;4030;52.362;9.206;2023-05-10T03:46:02;3.63;;;2.60;;
7969;SDS011;4030;52.362;9.206;2023-05-10T03:48:28;4.57;;;2.65;;
7969;SDS011;4030;52.362;9.206;2023-05-10T03:50:55;4.07;;;2.83;;
7969;SDS011;4030;52.362;9.206;2023-05-10T03:53:20;4.78;;;2.70;;
7969;SDS011;4030;52.362;9.206;2023-05-10T03:55:47;5.32;;;2.80;;
7969;SDS011;4030;52.362;9.206;2023-05-10T03:58:13;5.30;;;3.20;;
7969;SDS011;4030;52.362;9.206;2023-05-10T04:00:40;5.25;;;2.80;;
7969;SDS011;4030;52.362;9.206;2023-05-10T04:03:08;4.70;;;3.03;;
7969;SDS011;4030;52.362;9.206;2023-05-10T04:05:35;4.03;;;2.50;;
7969;SDS011;4030;52.362;9.206;2023-05-10T04:08:01;3.30;;;2.50;;
7969;SDS011;4030;52.362;9.206;2023-05-10T04:10:27;3.47;;;2.78;;
7969;SDS011;4030;52.362;9.206;2023-05-10T04:12:53;4.43;;;2.63;;
7969;SDS011;4030;52.362;9.206;2023-05-10T04:15:19;3.75;;;3.00;;
7969;SDS011;4030;52.362;9.206;2023-05-10T04:17:44;3.50;;;2.58;;
7969;SDS011;4030;52.362;9.206;2023-05-10T04:20:10;3.42;;;2.40;;
7969;SDS011;4030;52.362;9.206;2023-05-10T04:22:37;4.45;;;2.70;;
7969;SDS011;4030;52.362;9.206;2023-05-10T04:25:02;4.65;;;2.30;;
7969;SDS011;4030;52.362;9.206;2023-05-10T04:27:29;4.20;;;2.70;;
7969;SDS011;4030;52.362;9.206;2023-05-10T04:29:56;5.05;;;2.85;;
7969;SDS011;4030;52.362;9.206;2023-05-10T04:32:22;3.10;;;2.20;;
7969;SDS011;4030;52.362;9.206;2023-05-10T04:34:48;3.28;;;2.60;;
7969;SDS011;4030;52.362;9.206;2023-05-10T04:37:14;3.28;;;2.63;;
7969;SDS011;4030;52.362;9.206;2023-05-10T04:39:39;3.80;;;2.53;;
7969;SDS011;4030;52.362;9.206;2023-05-10T04:42:06;2.78;;;2.53;;
7969;SDS011;4030;52.362;9.206;2023-05-10T04:44:32;3.30;;;2.63;;
7969;SDS011;4030;52.362;9.206;2023-05-10T04:46:57;4.05;;;2.78;;
7969;SDS011;4030;52.362;9.206;2023-05-10T04:49:24;4.47;;;2.50;;
7969;SDS011;4030;52.362;9.206;2023-05-10T04:51:49;3.70;;;2.63;;
7969;SDS011;4030;52.362;9.206;2023-05-10T04:54:15;3.45;;;2.60;;
7969;SDS011;4030;52.362;9.206;2023-05-10T04:56:40;3.75;;;2.53;;
7969;SDS011;4030;52.362;9.206;2023-05-10T04:59:06;3.05;;;2.45;;
7969;SDS011;4030;52.362;9.206;2023-05-10T05:01:32;4.28;;;2.55;;
7969;SDS011;4030;52.362;9.206;2023-05-10T05:03:58;3.33;;;2.53;;
7969;SDS011;4030;52.362;9.206;2023-05-10T05:06:24;4.28;;;2.63;;
7969;SDS011;4030;52.362;9.206;2023-05-10T05:08:50;3.50;;;2.70;;
7969;SDS011;4030;52.362;9.206;2023-05-10T05:11:16;4.13;;;2.70;;
7969;SDS011;4030;52.362;9.206;2023-05-10T05:13:42;3.95;;;2.60;;
7969;SDS011;4030;52.362;9.206;2023-05-10T05:16:08;3.45;;;2.60;;
7969;SDS011;4030;52.362;9.206;2023-05-10T05:18:34;3.65;;;2.60;;
7969;SDS011;4030;52.362;9.206;2023-05-10T05:20:59;4.30;;;2.63;;
7969;SDS011;4030;52.362;9.206;2023-05-10T05:23:25;3.47;;;2.40;;
7969;SDS011;4030;52.362;9.206;2023-05-10T05:25:52;2.42;;;2.22;;
7969;SDS011;4030;52.362;9.206;2023-05-10T05:28:19;3.53;;;2.40;;
7969;SDS011;4030;52.362;9.206;2023-05-10T05:30:45;3.25;;;2.20;;
7969;SDS011;4030;52.362;9.206;2023-05-10T05:33:12;3.35;;;2.45;;
7969;SDS011;4030;52.362;9.206;2023-05-10T05:35:38;3.00;;;2.10;;
7969;SDS011;4030;52.362;9.206;2023-05-10T05:38:04;2.70;;;2.17;;
7969;SDS011;4030;52.362;9.206;2023-05-10T05:40:31;4.10;;;2.40;;
7969;SDS011;4030;52.362;9.206;2023-05-10T05:42:56;2.58;;;1.90;;
7969;SDS011;4030;52.362;9.206;2023-05-10T05:45:22;3.03;;;2.17;;
7969;SDS011;4030;52.362;9.206;2023-05-10T05:47:47;3.45;;;2.03;;
7969;SDS011;4030;52.362;9.206;2023-05-10T05:50:13;2.95;;;1.73;;
7969;SDS011;4030;52.362;9.206;2023-05-10T05:52:39;2.72;;;1.90;;
7969;SDS011;4030;52.362;9.206;2023-05-10T05:55:05;2.92;;;2.15;;
7969;SDS011;4030;52.362;9.206;2023-05-10T05:57:31;3.08;;;2.08;;
7969;SDS011;4030;52.362;9.206;2023-05-10T05:59:57;2.65;;;1.80;;
7969;SDS011;4030;52.362;9.206;2023-05-10T06:02:24;2.00;;;1.75;;
7969;SDS011;4030;52.362;9.206;2023-05-10T06:04:50;2.83;;;1.85;;
7969;SDS011;4030;52.362;9.206;2023-05-10T06:07:16;2.30;;;1.80;;
7969;SDS011;4030;52.362;9.206;2023-05-10T06:09:42;2.03;;;1.52;;
7969;SDS011;4030;52.362;9.206;2023-05-10T06:12:08;2.38;;;1.70;;
7969;SDS011;4030;52.362;9.206;2023-05-10T06:14:34;2.90;;;1.80;;
7969;SDS011;4030;52.362;9.206;2023-05-10T06:17:00;1.90;;;1.42;;
7969;SDS011;4030;52.362;9.206;2023-05-10T06:19:28;2.30;;;1.60;;
7969;SDS011;4030;52.362;9.206;2023-05-10T06:21:54;2.50;;;1.88;;
7969;SDS011;4030;52.362;9.206;2023-05-10T06:24:20;2.58;;;1.55;;
7969;SDS011;4030;52.362;9.206;2023-05-10T06:26:46;2.60;;;1.58;;
7969;SDS011;4030;52.362;9.206;2023-05-10T06:29:14;1.73;;;1.40;;
7969;SDS011;4030;52.362;9.206;2023-05-10T06:31:40;3.00;;;1.50;;
7969;SDS011;4030;52.362;9.206;2023-05-10T06:34:06;2.30;;;1.63;;
7969;SDS011;4030;52.362;9.206;2023-05-10T06:36:32;2.05;;;1.58;;
7969;SDS011;4030;52.362;9.206;2023-05-10T06:38:59;1.33;;;1.13;;
7969;SDS011;4030;52.362;9.206;2023-05-10T06:41:25;2.08;;;1.30;;
7969;SDS011;4030;52.362;9.206;2023-05-10T06:43:50;2.90;;;1.45;;
7969;SDS011;4030;52.362;9.206;2023-05-10T06:46:17;1.30;;;1.15;;
7969;SDS011;4030;52.362;9.206;2023-05-10T06:48:43;1.33;;;1.10;;
7969;SDS011;4030;52.362;9.206;2023-05-10T06:51:09;1.60;;;1.30;;
7969;SDS011;4030;52.362;9.206;2023-05-10T06:53:35;2.05;;;1.20;;
7969;SDS011;4030;52.362;9.206;2023-05-10T06:56:00;1.50;;;1.02;;
7969;SDS011;4030;52.362;9.206;2023-05-10T06:58:28;1.65;;;1.10;;
7969;SDS011;4030;52.362;9.206;2023-05-10T07:00:53;1.13;;;1.02;;
7969;SDS011;4030;52.362;9.206;2023-05-10T07:03:19;1.65;;;0.85;;
7969;SDS011;4030;52.362;9.206;2023-05-10T07:05:45;2.08;;;1.00;;
7969;SDS011;4030;52.362;9.206;2023-05-10T07:08:11;1.17;;;0.95;;
7969;SDS011;4030;52.362;9.206;2023-05-10T07:10:36;1.10;;;0.90;;
7969;SDS011;4030;52.362;9.206;2023-05-10T07:13:02;1.17;;;0.90;;
7969;SDS011;4030;52.362;9.206;2023-05-10T07:15:28;1.35;;;0.90;;
7969;SDS011;4030;52.362;9.206;2023-05-10T07:17:54;0.85;;;0.82;;
7969;SDS011;4030;52.362;9.206;2023-05-10T07:20:19;1.70;;;0.95;;
7969;SDS011;4030;52.362;9.206;2023-05-10T07:22:45;1.05;;;0.85;;
7969;SDS011;4030;52.362;9.206;2023-05-10T07:25:10;2.88;;;1.02;;
7969;SDS011;4030;52.362;9.206;2023-05-10T07:27:36;1.05;;;0.80;;
7969;SDS011;4030;52.362;9.206;2023-05-10T07:30:02;1.02;;;0.85;;
7969;SDS011;4030;52.362;9.206;2023-05-10T07:32:28;0.75;;;0.75;;
7969;SDS011;4030;52.362;9.206;2023-05-10T07:34:54;1.20;;;0.85;;
7969;SDS011;4030;52.362;9.206;2023-05-10T07:37:20;0.80;;;0.80;;
7969;SDS011;4030;52.362;9.206;2023-05-10T07:39:46;1.08;;;0.82;;
7969;SDS011;4030;52.362;9.206;2023-05-10T07:42:12;1.00;;;0.80;;
7969;SDS011;4030;52.362;9.206;2023-05-10T07:44:38;0.98;;;0.80;;
7969;SDS011;4030;52.362;9.206;2023-05-10T07:47:04;1.52;;;0.98;;
7969;SDS011;4030;52.362;9.206;2023-05-10T07:49:30;0.82;;;0.80;;
7969;SDS011;4030;52.362;9.206;2023-05-10T07:51:56;0.85;;;0.82;;
7969;SDS011;4030;52.362;9.206;2023-05-10T07:54:22;1.38;;;0.90;;
7969;SDS011;4030;52.362;9.206;2023-05-10T07:56:48;1.08;;;0.90;;
7969;SDS011;4030;52.362;9.206;2023-05-10T07:59:17;1.42;;;0.90;;
7969;SDS011;4030;52.362;9.206;2023-05-10T08:01:43;0.82;;;0.80;;
7969;SDS011;4030;52.362;9.206;2023-05-10T08:04:08;0.95;;;0.80;;
7969;SDS011;4030;52.362;9.206;2023-05-10T08:06:34;1.02;;;0.77;;
7969;SDS011;4030;52.362;9.206;2023-05-10T08:09:00;1.00;;;0.90;;
7969;SDS011;4030;52.362;9.206;2023-05-10T08:11:26;1.92;;;1.00;;
7969;SDS011;4030;52.362;9.206;2023-05-10T08:13:54;1.45;;;0.90;;
7969;SDS011;4030;52.362;9.206;2023-05-10T08:16:20;1.80;;;1.10;;
7969;SDS011;4030;52.362;9.206;2023-05-10T08:18:46;1.20;;;0.90;;
7969;SDS011;4030;52.362;9.206;2023-05-10T08:21:12;1.00;;;0.85;;
7969;SDS011;4030;52.362;9.206;2023-05-10T08:23:39;1.60;;;1.05;;
7969;SDS011;4030;52.362;9.206;2023-05-10T08:26:05;1.60;;;1.10;;
7969;SDS011;4030;52.362;9.206;2023-05-10T08:28:32;1.40;;;0.93;;
7969;SDS011;4030;52.362;9.206;2023-05-10T08:30:58;1.38;;;0.90;;
7969;SDS011;4030;52.362;9.206;2023-05-10T08:33:23;0.90;;;0.77;;
7969;SDS011;4030;52.362;9.206;2023-05-10T08:35:49;1.23;;;0.75;;
7969;SDS011;4030;52.362;9.206;2023-05-10T08:38:15;0.98;;;0.88;;
7969;SDS011;4030;52.362;9.206;2023-05-10T08:40:42;1.25;;;1.00;;
7969;SDS011;4030;52.362;9.206;2023-05-10T08:43:10;2.67;;;1.20;;
7969;SDS011;4030;52.362;9.206;2023-05-10T08:45:40;1.20;;;0.90;;
7969;SDS011;4030;52.362;9.206;2023-05-10T08:48:08;2.60;;;1.10;;
7969;SDS011;4030;52.362;9.206;2023-05-10T08:50:36;1.30;;;0.80;;
7969;SDS011;4030;52.362;9.206;2023-05-10T08:53:21;0.82;;;0.73;;
7969;SDS011;4030;52.362;9.206;2023-05-10T08:55:52;1.55;;;0.70;;
7969;SDS011;4030;52.362;9.206;2023-05-10T08:58:18;1.00;;;0.80;;
7969;SDS011;4030;52.362;9.206;2023-05-10T09:00:44;0.93;;;0.77;;
7969;SDS011;4030;52.362;9.206;2023-05-10T09:03:13;0.80;;;0.80;;
7969;SDS011;4030;52.362;9.206;2023-05-10T09:05:39;0.95;;;0.70;;
7969;SDS011;4030;52.362;9.206;2023-05-10T09:08:05;0.77;;;0.73;;
7969;SDS011;4030;52.362;9.206;2023-05-10T09:10:33;1.25;;;0.80;;
7969;SDS011;4030;52.362;9.206;2023-05-10T09:12:58;1.20;;;0.80;;
7969;SDS011;4030;52.362;9.206;2023-05-10T09:15:24;0.70;;;0.70;;
7969;SDS011;4030;52.362;9.206;2023-05-10T09:17:50;1.00;;;0.90;;
7969;SDS011;4030;52.362;9.206;2023-05-10T09:20:16;0.98;;;0.80;;
7969;SDS011;4030;52.362;9.206;2023-05-10T09:22:45;2.28;;;0.90;;
7969;SDS011;4030;52.362;9.206;2023-05-10T09:25:11;1.02;;;0.77;;
7969;SDS011;4030;52.362;9.206;2023-05-10T09:27:40;0.70;;;0.65;;
7969;SDS011;4030;52.362;9.206;2023-05-10T09:30:10;1.20;;;0.80;;
7969;SDS011;4030;52.362;9.206;2023-05-10T09:32:44;1.20;;;0.88;;
7969;SDS011;4030;52.362;9.206;2023-05-10T09:35:13;1.40;;;0.90;;
7969;SDS011;4030;52.362;9.206;2023-05-10T09:37:45;1.00;;;0.90;;
7969;SDS011;4030;52.362;9.206;2023-05-10T09:40:15;1.83;;;1.00;;
7969;SDS011;4030;52.362;9.206;2023-05-10T09:45:40;1.30;;;1.00;;
7969;SDS011;4030;52.362;9.206;2023-05-10T09:48:06;1.02;;;0.90;;
7969;SDS011;4030;52.362;9.206;2023-05-10T09:50:32;1.48;;;1.10;;
7969;SDS011;4030;52.362;9.206;2023-05-10T09:52:59;1.52;;;1.00;;
7969;SDS011;4030;52.362;9.206;2023-05-10T09:55:44;1.67;;;1.10;;
7969;SDS011;4030;52.362;9.206;2023-05-10T09:58:12;1.20;;;0.85;;
7969;SDS011;4030;52.362;9.206;2023-05-10T10:00:42;1.75;;;1.20;;
7969;SDS011;4030;52.362;9.206;2023-05-10T10:03:13;1.73;;;1.10;;
7969;SDS011;4030;52.362;9.206;2023-05-10T10:05:41;1.77;;;1.20;;
7969;SDS011;4030;52.362;9.206;2023-05-10T10:08:08;1.25;;;1.02;;
7969;SDS011;4030;52.362;9.206;2023-05-10T10:10:35;1.38;;;1.08;;
7969;SDS011;4030;52.362;9.206;2023-05-10T10:13:01;1.15;;;0.95;;
7969;SDS011;4030;52.362;9.206;2023-05-10T10:15:27;1.98;;;1.02;;
7969;SDS011;4030;52.362;9.206;2023-05-10T10:17:53;2.00;;;1.17;;
7969;SDS011;4030;52.362;9.206;2023-05-10T10:20:20;2.45;;;1.20;;
7969;SDS011;4030;52.362;9.206;2023-05-10T10:22:47;1.95;;;1.15;;
7969;SDS011;4030;52.362;9.206;2023-05-10T10:25:14;1.73;;;1.10;;
7969;SDS011;4030;52.362;9.206;2023-05-10T10:36:07;1.40;;;1.20;;
7969;SDS011;4030;52.362;9.206;2023-05-10T10:41:26;2.20;;;1.25;;
7969;SDS011;4030;52.362;9.206;2023-05-10T10:46:59;1.50;;;1.30;;
7969;SDS011;4030;52.362;9.206;2023-05-10T10:50:08;2.88;;;1.40;;
7969;SDS011;4030;52.362;9.206;2023-05-10T10:52:35;4.93;;;1.38;;
7969;SDS011;4030;52.362;9.206;2023-05-10T10:57:52;2.00;;;1.55;;
7969;SDS011;4030;52.362;9.206;2023-05-10T11:00:29;3.03;;;1.42;;
7969;SDS011;4030;52.362;9.206;2023-05-10T11:03:05;3.00;;;1.48;;
7969;SDS011;4030;52.362;9.206;2023-05-10T11:05:46;2.67;;;1.63;;
7969;SDS011;4030;52.362;9.206;2023-05-10T11:08:17;2.60;;;1.95;;
7969;SDS011;4030;52.362;9.206;2023-05-10T11:13:30;6.03;;;1.70;;
7969;SDS011;4030;52.362;9.206;2023-05-10T11:16:22;2.47;;;1.83;;
7969;SDS011;4030;52.362;9.206;2023-05-10T11:18:53;2.60;;;1.35;;
7969;SDS011;4030;52.362;9.206;2023-05-10T11:21:21;1.65;;;1.52;;
7969;SDS011;4030;52.362;9.206;2023-05-10T11:23:48;2.40;;;1.58;;
7969;SDS011;4030;52.362;9.206;2023-05-10T11:26:22;2.05;;;1.42;;
7969;SDS011;4030;52.362;9.206;2023-05-10T11:28:56;2.42;;;1.67;;
7969;SDS011;4030;52.362;9.206;2023-05-10T11:31:25;2.10;;;1.50;;
7969;SDS011;4030;52.362;9.206;2023-05-10T11:33:55;3.63;;;1.70;;
7969;SDS011;4030;52.362;9.206;2023-05-10T11:36:24;2.05;;;1.58;;
7969;SDS011;4030;52.362;9.206;2023-05-10T11:38:57;2.28;;;1.80;;
7969;SDS011;4030;52.362;9.206;2023-05-10T11:41:23;4.53;;;1.80;;
7969;SDS011;4030;52.362;9.206;2023-05-10T11:43:50;1.73;;;1.30;;
7969;SDS011;4030;52.362;9.206;2023-05-10T11:46:18;1.67;;;1.50;;
7969;SDS011;4030;52.362;9.206;2023-05-10T11:48:48;1.90;;;1.42;;
7969;SDS011;4030;52.362;9.206;2023-05-10T11:51:19;1.98;;;1.33;;
7969;SDS011;4030;52.362;9.206;2023-05-10T11:53:46;2.65;;;1.23;;
7969;SDS011;4030;52.362;9.206;2023-05-10T11:56:12;1.20;;;1.10;;
7969;SDS011;4030;52.362;9.206;2023-05-10T11:58:38;1.92;;;1.33;;
7969;SDS011;4030;52.362;9.206;2023-05-10T12:01:05;1.50;;;1.30;;
7969;SDS011;4030;52.362;9.206;2023-05-10T12:03:32;1.40;;;1.20;;
7969;SDS011;4030;52.362;9.206;2023-05-10T12:05:59;1.75;;;1.40;;
7969;SDS011;4030;52.362;9.206;2023-05-10T12:08:27;1.40;;;1.30;;
7969;SDS011;4030;52.362;9.206;2023-05-10T12:11:03;2.90;;;1.25;;
7969;SDS011;4030;52.362;9.206;2023-05-10T12:13:38;1.50;;;1.40;;
7969;SDS011;4030;52.362;9.206;2023-05-10T12:16:21;1.90;;;1.30;;
7969;SDS011;4030;52.362;9.206;2023-05-10T12:18:54;2.75;;;1.20;;
7969;SDS011;4030;52.362;9.206;2023-05-10T12:21:22;1.73;;;1.40;;
7969;SDS011;4030;52.362;9.206;2023-05-10T12:23:56;2.45;;;1.40;;
7969;SDS011;4030;52.362;9.206;2023-05-10T12:26:26;1.95;;;1.23;;
7969;SDS011;4030;52.362;9.206;2023-05-10T12:28:54;1.77;;;1.15;;
7969;SDS011;4030;52.362;9.206;2023-05-10T12:31:20;2.72;;;1.30;;
7969;SDS011;4030;52.362;9.206;2023-05-10T12:33:46;4.32;;;1.50;;
7969;SDS011;4030;52.362;9.206;2023-05-10T12:36:14;2.35;;;1.30;;
7969;SDS011;4030;52.362;9.206;2023-05-10T12:38:42;3.42;;;1.42;;
7969;SDS011;4030;52.362;9.206;2023-05-10T12:41:13;3.03;;;1.58;;
7969;SDS011;4030;52.362;9.206;2023-05-10T12:43:40;1.98;;;1.40;;
7969;SDS011;4030;52.362;9.206;2023-05-10T12:48:42;1.85;;;1.25;;
7969;SDS011;4030;52.362;9.206;2023-05-10T12:51:09;2.60;;;1.50;;
7969;SDS011;4030;52.362;9.206;2023-05-10T12:53:37;3.03;;;2.10;;
7969;SDS011;4030;52.362;9.206;2023-05-10T12:56:06;3.97;;;1.98;;
7969;SDS011;4030;52.362;9.206;2023-05-10T12:58:32;3.45;;;1.60;;
7969;SDS011;4030;52.362;9.206;2023-05-10T13:00:59;2.35;;;1.63;;
7969;SDS011;4030;52.362;9.206;2023-05-10T13:03:25;3.13;;;1.85;;
7969;SDS011;4030;52.362;9.206;2023-05-10T13:05:50;4.10;;;1.77;;
7969;SDS011;4030;52.362;9.206;2023-05-10T13:08:16;5.53;;;1.98;;
7969;SDS011;4030;52.362;9.206;2023-05-10T13:10:42;5.07;;;1.83;;
7969;SDS011;4030;52.362;9.206;2023-05-10T13:13:07;3.72;;;1.63;;
7969;SDS011;4030;52.362;9.206;2023-05-10T13:15:33;4.53;;;2.10;;
7969;SDS011;4030;52.362;9.206;2023-05-10T13:17:59;5.10;;;2.22;;
7969;SDS011;4030;52.362;9.206;2023-05-10T13:20:25;8.50;;;2.00;;
7969;SDS011;4030;52.362;9.206;2023-05-10T13:22:51;3.67;;;2.00;;
7969;SDS011;4030;52.362;9.206;2023-05-10T13:25:18;6.68;;;3.33;;
7969;SDS011;4030;52.362;9.206;2023-05-10T13:27:44;7.30;;;4.35;;
7969;SDS011;4030;52.362;9.206;2023-05-10T13:30:09;5.25;;;4.13;;
7969;SDS011;4030;52.362;9.206;2023-05-10T13:32:36;3.55;;;2.88;;
7969;SDS011;4030;52.362;9.206;2023-05-10T13:35:02;3.00;;;2.50;;
7969;SDS011;4030;52.362;9.206;2023-05-10T13:37:29;3.22;;;2.28;;
7969;SDS011;4030;52.362;9.206;2023-05-10T13:39:56;2.53;;;1.95;;
7969;SDS011;4030;52.362;9.206;2023-05-10T13:42:22;3.08;;;2.00;;
7969;SDS011;4030;52.362;9.206;2023-05-10T13:44:48;3.33;;;2.03;;
7969;SDS011;4030;52.362;9.206;2023-05-10T13:47:15;3.88;;;2.20;;
7969;SDS011;4030;52.362;9.206;2023-05-10T13:49:40;2.65;;;2.05;;
7969;SDS011;4030;52.362;9.206;2023-05-10T13:52:06;4.35;;;2.45;;
7969;SDS011;4030;52.362;9.206;2023-05-10T13:54:34;4.00;;;2.38;;
7969;SDS011;4030;52.362;9.206;2023-05-10T13:57:03;5.15;;;2.30;;
7969;SDS011;4030;52.362;9.206;2023-05-10T13:59:29;4.10;;;2.20;;
7969;SDS011;4030;52.362;9.206;2023-05-10T14:01:58;3.33;;;2.13;;
7969;SDS011;4030;52.362;9.206;2023-05-10T14:04:27;3.10;;;2.00;;
7969;SDS011;4030;52.362;9.206;2023-05-10T14:06:53;3.50;;;2.50;;
7969;SDS011;4030;52.362;9.206;2023-05-10T14:09:19;5.72;;;2.60;;
7969;SDS011;4030;52.362;9.206;2023-05-10T14:11:45;3.08;;;2.40;;
7969;SDS011;4030;52.362;9.206;2023-05-10T14:14:10;2.63;;;2.28;;
7969;SDS011;4030;52.362;9.206;2023-05-10T14:16:38;3.47;;;2.25;;
7969;SDS011;4030;52.362;9.206;2023-05-10T14:19:07;3.63;;;2.42;;
7969;SDS011;4030;52.362;9.206;2023-05-10T14:21:33;3.50;;;2.50;;
7969;SDS011;4030;52.362;9.206;2023-05-10T14:23:59;3.22;;;2.60;;
7969;SDS011;4030;52.362;9.206;2023-05-10T14:26:25;3.97;;;2.70;;
7969;SDS011;4030;52.362;9.206;2023-05-10T14:28:52;2.30;;;1.92;;
7969;SDS011;4030;52.362;9.206;2023-05-10T14:31:18;2.10;;;1.70;;
7969;SDS011;4030;52.362;9.206;2023-05-10T14:33:45;4.88;;;2.20;;
7969;SDS011;4030;52.362;9.206;2023-05-10T14:36:13;5.85;;;2.35;;
7969;SDS011;4030;52.362;9.206;2023-05-10T14:38:39;4.13;;;2.08;;
7969;SDS011;4030;52.362;9.206;2023-05-10T14:41:05;2.38;;;1.77;;
7969;SDS011;4030;52.362;9.206;2023-05-10T14:43:31;3.28;;;1.80;;
7969;SDS011;4030;52.362;9.206;2023-05-10T14:45:57;3.08;;;1.90;;
7969;SDS011;4030;52.362;9.206;2023-05-10T14:48:23;2.92;;;1.75;;
7969;SDS011;4030;52.362;9.206;2023-05-10T14:50:48;2.28;;;1.70;;
7969;SDS011;4030;52.362;9.206;2023-05-10T14:53:15;3.05;;;1.63;;
7969;SDS011;4030;52.362;9.206;2023-05-10T14:55:41;2.40;;;1.77;;
7969;SDS011;4030;52.362;9.206;2023-05-10T14:58:06;3.35;;;1.58;;
7969;SDS011;4030;52.362;9.206;2023-05-10T15:00:32;2.17;;;1.60;;
7969;SDS011;4030;52.362;9.206;2023-05-10T15:02:58;3.40;;;1.58;;
7969;SDS011;4030;52.362;9.206;2023-05-10T15:05:23;3.42;;;1.67;;
7969;SDS011;4030;52.362;9.206;2023-05-10T15:07:49;5.28;;;1.38;;
7969;SDS011;4030;52.362;9.206;2023-05-10T15:10:15;2.15;;;1.40;;
7969;SDS011;4030;52.362;9.206;2023-05-10T15:12:41;2.28;;;1.60;;
7969;SDS011;4030;52.362;9.206;2023-05-10T15:15:07;1.70;;;1.38;;
7969;SDS011;4030;52.362;9.206;2023-05-10T15:17:33;3.55;;;1.50;;
7969;SDS011;4030;52.362;9.206;2023-05-10T15:19:58;2.40;;;1.40;;
7969;SDS011;4030;52.362;9.206;2023-05-10T15:22:24;1.67;;;1.10;;
7969;SDS011;4030;52.362;9.206;2023-05-10T15:24:50;2.78;;;1.23;;
7969;SDS011;4030;52.362;9.206;2023-05-10T15:27:16;2.33;;;1.30;;
7969;SDS011;4030;52.362;9.206;2023-05-10T15:29:41;2.38;;;1.40;;
7969;SDS011;4030;52.362;9.206;2023-05-10T15:32:07;1.80;;;1.40;;
7969;SDS011;4030;52.362;9.206;2023-05-10T15:34:33;2.03;;;1.30;;
7969;SDS011;4030;52.362;9.206;2023-05-10T15:36:59;2.53;;;1.25;;
7969;SDS011;4030;52.362;9.206;2023-05-10T15:39:24;1.15;;;1.05;;
7969;SDS011;4030;52.362;9.206;2023-05-10T15:41:50;3.30;;;1.40;;
7969;SDS011;4030;52.362;9.206;2023-05-10T15:44:16;2.08;;;1.30;;
7969;SDS011;4030;52.362;9.206;2023-05-10T15:46:43;2.20;;;1.40;;
7969;SDS011;4030;52.362;9.206;2023-05-10T15:49:09;2.60;;;1.40;;
7969;SDS011;4030;52.362;9.206;2023-05-10T15:51:34;3.00;;;1.23;;
7969;SDS011;4030;52.362;9.206;2023-05-10T15:54:00;1.63;;;1.05;;
7969;SDS011;4030;52.362;9.206;2023-05-10T15:56:31;1.85;;;1.30;;